createdAt,value
2018-01-04T00:02:24.714Z,5.13
2018-01-04T00:04:52.394Z,4.63
2018-01-04T00:07:20.215Z,0.97
2018-01-04T00:09:48.043Z,5.03
2018-01-04T00:12:15.725Z,2.20
2018-01-04T00:14:43.492Z,2.53
2018-01-04T00:17:11.156Z,1.83
2018-01-04T00:19:38.900Z,0.60
2018-01-04T00:22:06.651Z,0.70
2018-01-04T00:24:34.316Z,0.43
2018-01-04T00:27:02.060Z,1.10
2018-01-04T00:29:29.725Z,5.87
2018-01-04T00:31:58.052Z,1.90
2018-01-04T00:34:25.730Z,7.50
2018-01-04T00:36:53.487Z,1.60
2018-01-04T00:39:21.189Z,4.17
2018-01-04T00:41:48.911Z,1.17
2018-01-04T00:44:16.614Z,8.43
2018-01-04T00:46:44.362Z,4.57
2018-01-04T00:49:12.165Z,4.67
2018-01-04T00:51:39.905Z,6.07
2018-01-04T00:54:07.607Z,3.73
2018-01-04T00:56:35.269Z,1.50
2018-01-04T00:59:03.024Z,2.03
2018-01-04T01:01:30.707Z,2.10
2018-01-04T01:03:58.383Z,3.13
2018-01-04T01:06:26.150Z,5.40
2018-01-04T01:08:53.894Z,1.97
2018-01-04T01:11:21.573Z,0.40
2018-01-04T01:13:49.312Z,2.30
2018-01-04T01:16:17.059Z,5.70
2018-01-04T01:18:44.943Z,12.63
2018-01-04T01:21:12.693Z,4.43
2018-01-04T01:23:40.400Z,3.90
2018-01-04T01:26:08.132Z,1.43
2018-01-04T01:28:35.810Z,2.03
2018-01-04T01:31:03.599Z,3.57
2018-01-04T01:33:31.333Z,2.10
2018-01-04T01:35:59.004Z,3.23
2018-01-04T01:38:26.718Z,0.53
2018-01-04T01:40:54.453Z,1.07
2018-01-04T01:43:22.188Z,2.67
2018-01-04T01:45:50.043Z,4.13
2018-01-04T01:48:17.720Z,1.03
2018-01-04T01:50:45.488Z,1.27
2018-01-04T01:53:13.276Z,7.97
2018-01-04T01:55:41.052Z,0.90
2018-01-04T01:58:08.758Z,2.57
2018-01-04T02:00:36.456Z,1.03
2018-01-04T02:03:04.214Z,1.43
2018-01-04T02:05:31.960Z,2.10
2018-01-04T02:07:59.633Z,0.30
2018-01-04T02:10:27.411Z,0.40
2018-01-04T02:12:55.102Z,0.60
2018-01-04T02:15:22.803Z,1.43
2018-01-04T02:17:50.644Z,0.90
2018-01-04T02:20:30.266Z,1.10
2018-01-04T02:23:09.728Z,3.50
2018-01-04T02:25:46.259Z,0.57
2018-01-04T02:28:25.666Z,1.97
2018-01-04T02:31:05.180Z,2.90
2018-01-04T02:33:44.490Z,1.57
2018-01-04T02:36:23.858Z,1.70
2018-01-04T02:42:04.130Z,1.67
2018-01-04T02:44:39.830Z,0.87
2018-01-04T02:47:07.583Z,9.43
2018-01-04T02:49:35.271Z,0.60
2018-01-04T02:52:03.004Z,0.80
2018-01-04T02:54:30.711Z,0.30
2018-01-04T02:56:58.493Z,2.17
2018-01-04T02:59:26.252Z,1.10
2018-01-04T03:01:53.978Z,1.53
2018-01-04T03:04:21.712Z,2.87
2018-01-04T03:06:49.427Z,10.90
2018-01-04T03:09:17.136Z,5.20
2018-01-04T03:11:44.816Z,0.30
2018-01-04T03:14:12.540Z,0.80
2018-01-04T03:16:40.202Z,1.03
2018-01-04T03:19:07.926Z,0.50
2018-01-04T03:21:35.663Z,0.33
2018-01-04T03:24:03.413Z,3.13
2018-01-04T03:26:36.560Z,0.30
2018-01-04T03:29:09.865Z,0.57
2018-01-04T03:31:43.116Z,2.10
2018-01-04T03:34:16.421Z,0.50
2018-01-04T03:36:49.742Z,1.23
2018-01-04T03:39:23.431Z,3.30
2018-01-04T03:41:57.565Z,2.07
2018-01-04T03:47:34.856Z,2.03
2018-01-04T03:50:08.099Z,0.30
2018-01-04T03:52:35.790Z,0.67
2018-01-04T03:55:09.178Z,0.30
2018-01-04T03:57:42.508Z,0.30
2018-01-04T04:00:15.605Z,1.70
2018-01-04T04:02:48.820Z,0.53
2018-01-04T04:05:22.157Z,1.77
2018-01-04T04:07:49.941Z,2.33
2018-01-04T04:10:17.643Z,1.90
2018-01-04T04:12:45.356Z,1.67
2018-01-04T04:15:13.161Z,3.03
2018-01-04T04:17:40.829Z,1.30
2018-01-04T04:20:08.498Z,0.40
2018-01-04T04:22:36.243Z,1.20
2018-01-04T04:25:03.952Z,2.20
2018-01-04T04:27:31.626Z,6.33
2018-01-04T04:29:59.415Z,3.43
2018-01-04T04:32:27.120Z,2.47
2018-01-04T04:34:54.855Z,1.70
2018-01-04T04:37:22.522Z,1.73
2018-01-04T04:39:50.252Z,0.93
2018-01-04T04:42:17.968Z,0.90
2018-01-04T04:44:45.625Z,0.40
2018-01-04T04:47:13.658Z,0.30
2018-01-04T04:49:42.135Z,0.40
2018-01-04T04:52:09.801Z,0.67
2018-01-04T04:54:37.541Z,0.70
2018-01-04T04:57:05.247Z,1.07
2018-01-04T04:59:32.956Z,0.30
2018-01-04T05:02:00.761Z,0.60
2018-01-04T05:04:28.465Z,1.03
2018-01-04T05:06:56.203Z,0.30
2018-01-04T05:09:23.927Z,0.40
2018-01-04T05:11:51.626Z,0.20
2018-01-04T05:14:19.289Z,0.20
2018-01-04T05:16:47.034Z,0.20
2018-01-04T05:19:14.705Z,0.50
2018-01-04T05:21:42.449Z,0.20
2018-01-04T05:24:10.147Z,0.40
2018-01-04T05:26:37.863Z,0.20
2018-01-04T05:29:05.563Z,0.30
2018-01-04T05:31:33.294Z,1.03
2018-01-04T05:34:00.977Z,0.30
2018-01-04T05:36:28.698Z,0.43
2018-01-04T05:38:56.518Z,1.37
2018-01-04T05:41:24.247Z,0.80
2018-01-04T05:43:51.953Z,2.30
2018-01-04T05:46:20.098Z,1.67
2018-01-04T05:48:47.800Z,1.40
2018-01-04T05:51:15.529Z,0.70
2018-01-04T05:53:43.204Z,0.40
2018-01-04T05:56:10.919Z,0.30
2018-01-04T05:58:38.630Z,0.70
2018-01-04T06:01:06.395Z,0.30
2018-01-04T06:03:34.127Z,0.60
2018-01-04T06:06:01.795Z,1.60
2018-01-04T06:08:29.536Z,0.87
2018-01-04T06:10:57.282Z,0.20
2018-01-04T06:13:24.991Z,1.03
2018-01-04T06:15:52.703Z,1.17
2018-01-04T06:18:20.428Z,0.30
2018-01-04T06:20:48.108Z,0.30
2018-01-04T06:23:15.785Z,0.50
2018-01-04T06:25:43.531Z,0.20
2018-01-04T06:28:11.223Z,1.63
2018-01-04T06:30:39.032Z,3.70
2018-01-04T06:33:06.731Z,4.73
2018-01-04T06:35:35.511Z,4.07
2018-01-04T06:38:03.342Z,1.60
2018-01-04T06:40:30.999Z,2.43
2018-01-04T06:42:59.814Z,1.17
2018-01-04T06:45:27.562Z,2.10
2018-01-04T06:47:55.264Z,6.23
2018-01-04T06:50:22.986Z,7.67
2018-01-04T06:52:50.690Z,4.47
2018-01-04T06:55:18.389Z,3.67
2018-01-04T06:57:46.177Z,2.20
2018-01-04T07:00:13.929Z,1.40
2018-01-04T07:02:41.797Z,1.57
2018-01-04T07:05:09.460Z,1.57
2018-01-04T07:07:37.177Z,0.67
2018-01-04T07:10:04.870Z,0.83
2018-01-04T07:12:32.643Z,1.57
2018-01-04T07:15:00.349Z,2.53
2018-01-04T07:17:28.095Z,2.30
2018-01-04T07:19:55.799Z,3.30
2018-01-04T07:22:23.548Z,4.90
2018-01-04T07:24:51.309Z,4.07
2018-01-04T07:27:19.027Z,4.67
2018-01-04T07:29:46.719Z,5.00
2018-01-04T07:32:14.473Z,10.53
2018-01-04T07:34:42.229Z,15.27
2018-01-04T07:37:10.004Z,16.47
2018-01-04T07:39:37.716Z,12.53
2018-01-04T07:42:05.650Z,10.10
2018-01-04T07:44:33.388Z,13.60
2018-01-04T07:47:01.114Z,13.83
2018-01-04T07:49:28.876Z,19.30
2018-01-04T07:51:56.579Z,8.77
2018-01-04T07:54:24.340Z,11.90
2018-01-04T07:56:52.050Z,10.73
2018-01-04T07:59:19.784Z,10.80
2018-01-04T08:01:47.638Z,19.13
2018-01-04T08:04:15.347Z,25.50
2018-01-04T08:06:43.149Z,25.70
2018-01-04T08:09:10.876Z,19.20
2018-01-04T08:11:38.598Z,17.47
2018-01-04T08:14:06.363Z,17.00
2018-01-04T08:16:34.122Z,13.63
2018-01-04T08:19:01.859Z,34.30
2018-01-04T08:21:29.587Z,23.73
2018-01-04T08:23:57.366Z,19.50
2018-01-04T08:26:25.149Z,24.03
2018-01-04T08:28:52.876Z,19.87
2018-01-04T08:31:20.677Z,19.93
2018-01-04T08:33:48.584Z,14.60
2018-01-04T08:36:18.051Z,17.07
2018-01-04T08:38:45.859Z,12.17
2018-01-04T08:41:13.624Z,21.03
2018-01-04T08:43:41.490Z,11.60
2018-01-04T08:46:09.260Z,11.80
2018-01-04T08:48:37.061Z,6.40
2018-01-04T08:51:04.825Z,6.00
2018-01-04T08:53:32.558Z,9.77
2018-01-04T08:56:01.508Z,7.70
2018-01-04T08:58:29.456Z,6.93
2018-01-04T09:00:57.348Z,5.93
2018-01-04T09:03:25.046Z,5.10
2018-01-04T09:05:52.792Z,6.07
2018-01-04T09:08:20.596Z,5.17
2018-01-04T09:10:48.312Z,7.70
2018-01-04T09:13:16.126Z,3.50
2018-01-04T09:15:43.919Z,4.10
2018-01-04T09:18:11.645Z,4.90
2018-01-04T09:20:39.336Z,1.70
2018-01-04T09:23:07.095Z,3.20
2018-01-04T09:25:34.860Z,1.63
2018-01-04T09:28:02.836Z,4.10
2018-01-04T09:30:30.582Z,10.37
2018-01-04T09:32:58.364Z,7.93
2018-01-04T09:35:26.117Z,21.43
2018-01-04T09:37:53.853Z,19.03
2018-01-04T09:40:21.689Z,27.33
2018-01-04T09:42:49.495Z,12.20
2018-01-04T09:45:17.326Z,12.90
2018-01-04T09:47:45.164Z,18.23
2018-01-04T09:50:13.115Z,19.43
2018-01-04T09:52:40.840Z,17.33
2018-01-04T09:55:08.584Z,11.70
2018-01-04T09:57:36.295Z,9.90
2018-01-04T10:00:04.126Z,8.43
2018-01-04T10:02:31.867Z,8.43
2018-01-04T10:05:00.313Z,7.03
2018-01-04T10:07:28.055Z,8.90
2018-01-04T10:09:55.786Z,8.90
2018-01-04T10:12:23.543Z,10.70
2018-01-04T10:14:51.230Z,8.17
2018-01-04T10:17:19.048Z,8.07
2018-01-04T10:19:46.757Z,8.37
2018-01-04T10:22:14.499Z,8.33
2018-01-04T10:24:42.282Z,25.80
2018-01-04T10:27:10.086Z,20.17
2018-01-04T10:29:37.809Z,17.23
2018-01-04T10:32:05.573Z,11.77
2018-01-04T10:34:33.319Z,19.40
2018-01-04T10:37:01.155Z,13.03
2018-01-04T10:39:28.947Z,8.47
2018-01-04T10:41:57.071Z,14.83
2018-01-04T10:44:24.971Z,17.57
2018-01-04T10:46:52.781Z,16.80
2018-01-04T10:49:20.496Z,23.87
2018-01-04T10:51:48.397Z,17.80
2018-01-04T10:54:16.189Z,16.80
2018-01-04T10:56:43.911Z,13.60
2018-01-04T10:59:12.882Z,9.40
2018-01-04T11:01:40.783Z,11.20
2018-01-04T11:04:08.523Z,11.27
2018-01-04T11:06:36.362Z,10.73
2018-01-04T11:09:04.181Z,11.27
2018-01-04T11:11:31.935Z,11.70
2018-01-04T11:13:59.671Z,7.50
2018-01-04T11:16:27.532Z,7.87
2018-01-04T11:18:55.304Z,19.17
2018-01-04T11:21:23.069Z,11.03
2018-01-04T11:23:50.801Z,6.93
2018-01-04T11:26:18.576Z,6.93
2018-01-04T11:28:46.287Z,7.77
2018-01-04T11:31:13.989Z,8.00
2018-01-04T11:33:41.918Z,8.20
2018-01-04T11:36:09.623Z,5.87
2018-01-04T11:38:38.634Z,6.50
2018-01-04T11:41:06.431Z,9.20
2018-01-04T11:43:34.181Z,13.70
2018-01-04T11:46:01.936Z,12.60
2018-01-04T11:48:29.686Z,13.50
2018-01-04T11:50:57.436Z,7.90
2018-01-04T11:53:25.214Z,8.17
2018-01-04T11:55:52.903Z,5.23
2018-01-04T11:58:20.643Z,7.20
2018-01-04T12:00:48.363Z,11.23
2018-01-04T12:03:16.140Z,8.30
2018-01-04T12:05:43.859Z,10.53
2018-01-04T12:08:11.644Z,7.80
2018-01-04T12:10:39.407Z,7.43
2018-01-04T12:13:07.154Z,8.40
2018-01-04T12:15:34.872Z,6.23
2018-01-04T12:18:02.572Z,10.13
2018-01-04T12:20:30.313Z,10.20
2018-01-04T12:22:58.064Z,11.13
2018-01-04T12:25:25.796Z,8.10
2018-01-04T12:27:53.494Z,8.37
2018-01-04T12:30:21.402Z,8.77
2018-01-04T12:32:49.133Z,9.97
2018-01-04T12:35:16.904Z,11.70
2018-01-04T12:37:44.607Z,7.97
2018-01-04T12:40:12.364Z,7.10
2018-01-04T12:42:40.062Z,3.80
2018-01-04T12:45:07.825Z,6.87
2018-01-04T12:47:35.566Z,4.63
2018-01-04T12:50:03.341Z,6.83
2018-01-04T12:52:31.111Z,7.20
2018-01-04T12:54:58.890Z,7.43
2018-01-04T12:57:26.704Z,8.47
2018-01-04T12:59:54.565Z,8.53
2018-01-04T13:02:22.344Z,8.23
2018-01-04T13:04:50.042Z,5.57
2018-01-04T13:07:17.840Z,8.17
2018-01-04T13:09:45.595Z,7.27
2018-01-04T13:12:13.481Z,13.13
2018-01-04T13:14:41.168Z,8.20
2018-01-04T13:17:08.934Z,6.70
2018-01-04T13:19:36.658Z,7.33
2018-01-04T13:22:04.422Z,5.57
2018-01-04T13:24:32.596Z,5.83
2018-01-04T13:27:00.344Z,9.97
2018-01-04T13:29:28.109Z,7.17
2018-01-04T13:31:55.792Z,8.87
2018-01-04T13:34:23.547Z,7.27
2018-01-04T13:36:51.242Z,9.70
2018-01-04T13:39:19.689Z,8.70
2018-01-04T13:41:48.655Z,8.40
2018-01-04T13:44:16.397Z,9.53
2018-01-04T13:46:44.143Z,6.37
2018-01-04T13:49:11.848Z,9.10
2018-01-04T13:51:39.560Z,9.20
2018-01-04T13:54:07.304Z,7.60
2018-01-04T13:56:34.994Z,10.83
2018-01-04T13:59:02.776Z,9.37
2018-01-04T14:01:30.466Z,9.17
2018-01-04T14:03:58.227Z,11.90
2018-01-04T14:06:26.009Z,10.03
2018-01-04T14:08:53.801Z,14.40
2018-01-04T14:11:21.495Z,12.03
2018-01-04T14:13:49.204Z,11.37
2018-01-04T14:16:16.991Z,11.93
2018-01-04T14:18:44.702Z,13.00
2018-01-04T14:21:12.477Z,11.87
2018-01-04T14:23:40.294Z,15.90
2018-01-04T14:26:08.062Z,14.77
2018-01-04T14:28:35.815Z,15.50
2018-01-04T14:31:03.579Z,18.90
2018-01-04T14:33:31.309Z,20.57
2018-01-04T14:35:59.057Z,21.50
2018-01-04T14:38:26.776Z,20.00
2018-01-04T14:40:54.484Z,24.40
2018-01-04T14:43:22.305Z,18.13
2018-01-04T14:45:50.140Z,18.07
2018-01-04T14:48:17.939Z,18.20
2018-01-04T14:50:45.678Z,20.77
2018-01-04T14:53:13.544Z,16.70
2018-01-04T14:55:41.402Z,22.77
2018-01-04T14:58:09.226Z,20.43
2018-01-04T15:00:37.516Z,24.13
2018-01-04T15:03:05.248Z,26.77
2018-01-04T15:05:33.207Z,23.23
2018-01-04T15:08:00.925Z,28.47
2018-01-04T15:10:29.939Z,27.13
2018-01-04T15:12:58.789Z,29.90
2018-01-04T15:15:26.571Z,24.23
2018-01-04T15:17:54.354Z,29.90
2018-01-04T15:20:22.379Z,30.40
2018-01-04T15:22:51.321Z,27.60
2018-01-04T15:25:19.276Z,31.50
2018-01-04T15:27:47.125Z,29.40
2018-01-04T15:30:14.900Z,25.80
2018-01-04T15:32:42.973Z,27.37
2018-01-04T15:35:10.832Z,30.90
2018-01-04T15:37:38.824Z,27.50
2018-01-04T15:40:07.349Z,21.30
2018-01-04T15:42:35.364Z,22.90
2018-01-04T15:45:03.325Z,16.37
2018-01-04T15:47:31.138Z,18.90
2018-01-04T15:49:59.990Z,21.93
2018-01-04T15:52:29.617Z,18.50
2018-01-04T15:54:57.536Z,11.47
2018-01-04T15:57:25.452Z,13.60
2018-01-04T15:59:53.240Z,8.97
2018-01-04T16:02:21.203Z,7.93
2018-01-04T16:04:49.003Z,6.03
2018-01-04T16:07:16.988Z,3.63
2018-01-04T16:09:44.817Z,3.67
2018-01-04T16:12:12.591Z,5.03
2018-01-04T16:14:40.449Z,4.80
2018-01-04T16:17:08.210Z,5.00
2018-01-04T16:19:35.992Z,6.23
2018-01-04T16:22:03.751Z,4.80
2018-01-04T16:24:31.491Z,5.90
2018-01-04T16:26:59.307Z,7.70
2018-01-04T16:29:27.161Z,11.20
2018-01-04T16:31:54.960Z,14.00
2018-01-04T16:34:22.745Z,10.40
2018-01-04T16:36:50.507Z,18.57
2018-01-04T16:39:18.291Z,14.40
2018-01-04T16:41:46.106Z,16.87
2018-01-04T16:44:14.424Z,19.13
2018-01-04T16:46:42.148Z,15.33
2018-01-04T16:49:09.908Z,16.10
2018-01-04T16:51:38.362Z,17.03
2018-01-04T16:54:06.112Z,17.10
2018-01-04T16:56:34.535Z,18.00
2018-01-04T16:59:02.378Z,15.93
2018-01-04T17:01:30.222Z,17.43
2018-01-04T17:03:58.135Z,13.60
2018-01-04T17:06:25.952Z,13.87
2018-01-04T17:08:54.497Z,16.17
2018-01-04T17:11:22.660Z,10.50
2018-01-04T17:13:51.676Z,9.23
2018-01-04T17:16:19.428Z,12.03
2018-01-04T17:18:47.218Z,14.33
2018-01-04T17:21:15.116Z,17.00
2018-01-04T17:23:43.058Z,15.57
2018-01-04T17:26:10.812Z,22.17
2018-01-04T17:28:38.562Z,20.90
2018-01-04T17:31:06.390Z,22.37
2018-01-04T17:33:34.129Z,32.43
2018-01-04T17:36:02.017Z,35.63
2018-01-04T17:38:29.810Z,42.13
2018-01-04T17:40:57.545Z,27.40
2018-01-04T17:43:25.408Z,18.73
2018-01-04T17:45:53.210Z,20.50
2018-01-04T17:48:20.965Z,19.93
2018-01-04T17:50:48.752Z,15.70
2018-01-04T17:53:16.469Z,15.77
2018-01-04T17:55:44.311Z,17.73
2018-01-04T17:58:12.069Z,20.40
2018-01-04T18:00:40.251Z,16.30
2018-01-04T18:03:07.976Z,18.70
2018-01-04T18:05:35.822Z,16.37
2018-01-04T18:08:04.874Z,16.97
2018-01-04T18:10:32.630Z,18.17
2018-01-04T18:13:01.501Z,17.33
2018-01-04T18:15:29.271Z,15.30
2018-01-04T18:17:57.069Z,15.63
2018-01-04T18:20:24.805Z,16.50
2018-01-04T18:22:52.592Z,13.97
2018-01-04T18:25:20.314Z,17.07
2018-01-04T18:27:48.124Z,21.67
2018-01-04T18:30:15.881Z,16.10
2018-01-04T18:32:43.887Z,18.80
2018-01-04T18:35:11.693Z,24.63
2018-01-04T18:37:39.483Z,20.00
2018-01-04T18:40:07.257Z,17.80
2018-01-04T18:42:35.091Z,20.37
2018-01-04T18:45:02.941Z,18.97
2018-01-04T18:47:30.680Z,16.77
2018-01-04T18:49:58.567Z,20.63
2018-01-04T18:52:26.456Z,19.10
2018-01-04T18:54:54.254Z,21.70
2018-01-04T18:57:22.049Z,19.87
2018-01-04T18:59:49.895Z,21.50
2018-01-04T19:02:17.646Z,25.70
2018-01-04T19:04:45.394Z,25.27
2018-01-04T19:07:13.228Z,21.23
2018-01-04T19:09:41.149Z,15.03
2018-01-04T19:12:09.173Z,18.80
2018-01-04T19:14:36.951Z,33.63
2018-01-04T19:17:04.726Z,48.87
2018-01-04T19:19:32.510Z,46.30
2018-01-04T19:22:00.284Z,37.77
2018-01-04T19:24:28.079Z,38.97
2018-01-04T19:26:55.905Z,29.73
2018-01-04T19:29:23.837Z,26.20
2018-01-04T19:31:51.686Z,20.80
2018-01-04T19:34:19.416Z,16.70
2018-01-04T19:36:47.231Z,8.97
2018-01-04T19:39:16.534Z,6.07
2018-01-04T19:41:44.205Z,2.97
2018-01-04T19:44:12.040Z,2.67
2018-01-04T19:46:41.104Z,3.30
2018-01-04T19:49:09.158Z,1.50
2018-01-04T19:51:37.321Z,11.60
2018-01-04T19:54:05.253Z,10.07
2018-01-04T19:56:33.103Z,8.30
2018-01-04T19:59:01.037Z,11.53
2018-01-04T20:01:30.167Z,8.47
2018-01-04T20:03:59.589Z,16.40
2018-01-04T20:06:27.788Z,14.20
2018-01-04T20:08:56.205Z,10.33
2018-01-04T20:11:27.012Z,3.63
2018-01-04T20:13:54.823Z,3.57
2018-01-04T20:16:23.023Z,15.77
2018-01-04T20:18:50.936Z,14.97
2018-01-04T20:21:18.759Z,16.40
2018-01-04T20:23:46.751Z,25.23
2018-01-04T20:26:14.649Z,21.10
2018-01-04T20:28:42.483Z,19.03
2018-01-04T20:31:10.398Z,30.00
2018-01-04T20:33:39.882Z,27.97
2018-01-04T20:36:07.967Z,27.63
2018-01-04T20:38:35.678Z,21.80
2018-01-04T20:41:03.597Z,23.03
2018-01-04T20:43:31.409Z,24.43
2018-01-04T20:45:59.192Z,29.37
2018-01-04T20:48:27.076Z,28.93
2018-01-04T20:50:55.161Z,21.97
2018-01-04T20:53:23.944Z,27.23
2018-01-04T20:55:51.805Z,30.63
2018-01-04T20:58:20.186Z,23.70
2018-01-04T21:00:48.154Z,38.37
2018-01-04T21:03:16.201Z,22.83
2018-01-04T21:05:44.209Z,20.10
2018-01-04T21:08:12.019Z,21.10
2018-01-04T21:10:39.824Z,20.20
2018-01-04T21:13:07.861Z,17.70
2018-01-04T21:15:35.639Z,19.20
2018-01-04T21:18:04.306Z,20.13
2018-01-04T21:20:32.179Z,18.83
2018-01-04T21:23:01.559Z,16.53
2018-01-04T21:25:29.264Z,21.50
2018-01-04T21:27:57.172Z,19.30
2018-01-04T21:30:24.953Z,14.53
2018-01-04T21:32:52.775Z,15.00
2018-01-04T21:35:20.647Z,15.63
2018-01-04T21:37:48.457Z,16.90
2018-01-04T21:40:16.154Z,17.90
2018-01-04T21:42:43.936Z,15.83
2018-01-04T21:45:11.647Z,17.47
2018-01-04T21:47:39.358Z,17.00
2018-01-04T21:50:07.316Z,16.50
2018-01-04T21:52:35.459Z,18.40
2018-01-04T21:55:03.275Z,16.13
2018-01-04T21:57:31.038Z,17.70
2018-01-04T21:59:58.912Z,14.33
2018-01-04T22:02:27.585Z,18.30
2018-01-04T22:04:55.341Z,15.80
2018-01-04T22:07:23.205Z,15.00
2018-01-04T22:09:50.948Z,18.10
2018-01-04T22:12:18.760Z,16.13
2018-01-04T22:14:46.557Z,17.87
2018-01-04T22:17:15.167Z,13.80
2018-01-04T22:19:42.882Z,16.60
2018-01-04T22:22:10.670Z,16.70
2018-01-04T22:24:38.688Z,12.60
2018-01-04T22:27:06.376Z,13.33
2018-01-04T22:29:35.737Z,11.63
2018-01-04T22:32:03.787Z,16.37
2018-01-04T22:34:31.505Z,12.57
2018-01-04T22:36:59.384Z,17.97
2018-01-04T22:39:27.191Z,15.10
2018-01-04T22:41:54.937Z,16.63
2018-01-04T22:44:22.686Z,17.30
2018-01-04T22:46:50.466Z,17.37
2018-01-04T22:49:18.189Z,19.97
2018-01-04T22:51:45.954Z,19.27
2018-01-04T22:54:13.758Z,16.37
2018-01-04T22:56:41.456Z,20.87
2018-01-04T22:59:09.149Z,19.23
2018-01-04T23:01:36.925Z,18.53
2018-01-04T23:04:04.750Z,18.33
2018-01-04T23:06:33.579Z,14.60
2018-01-04T23:09:02.058Z,17.77
2018-01-04T23:11:29.814Z,16.27
2018-01-04T23:13:57.552Z,14.13
2018-01-04T23:16:25.260Z,15.23
2018-01-04T23:18:53.027Z,21.97
2018-01-04T23:21:20.790Z,15.23
2018-01-04T23:23:48.566Z,12.27
2018-01-04T23:26:16.317Z,17.60
2018-01-04T23:28:44.005Z,13.83
2018-01-04T23:31:11.774Z,14.80
2018-01-04T23:33:39.541Z,14.37
2018-01-04T23:36:07.220Z,17.70
2018-01-04T23:38:35.013Z,12.53
2018-01-04T23:41:02.717Z,13.30
2018-01-04T23:43:30.426Z,18.20
2018-01-04T23:45:58.300Z,13.43
2018-01-04T23:48:26.012Z,11.17
2018-01-04T23:50:53.747Z,11.77
2018-01-04T23:53:21.571Z,9.83
2018-01-04T23:55:49.347Z,9.70
2018-01-04T23:58:17.107Z,11.53
